Time;durP1;ratioP1;P1;durP2;ratioP2;P2;SDS_P1;SDS_P2;PMS_P1;PMS_P2;Temp;Humidity;BMP_temperature;BMP_pressure;BME280_temperature;BME280_humidity;BME280_pressure;Samples;Min_cycle;Max_cycle;Signal;HPM_P1;HPM_P2
2023/03/13 00:01:37;;;;;;;2.83;1.30;;;;;;;18.70;44.65;100206.75;4841201;29;97338;-74
2023/03/13 00:04:05;;;;;;;2.10;1.00;;;;;;;18.67;44.75;100202.53;4841328;29;97041;-74
2023/03/13 00:06:37;;;;;;;2.10;1.23;;;;;;;18.66;44.54;100199.97;4839729;29;96859;-74
2023/03/13 00:09:06;;;;;;;1.83;0.88;;;;;;;18.66;44.67;100186.38;4840317;29;97190;-74
2023/03/13 00:11:33;;;;;;;3.65;1.73;;;;;;;18.66;44.46;100178.22;4838825;29;98699;-76
2023/03/13 00:14:01;;;;;;;2.78;1.20;;;;;;;18.67;44.76;100174.47;4839336;29;96794;-74
2023/03/13 00:16:29;;;;;;;3.40;1.30;;;;;;;18.66;44.77;100170.06;4840532;29;96662;-74
2023/03/13 00:18:57;;;;;;;2.97;1.38;;;;;;;18.67;44.72;100160.88;4839388;29;96689;-74
2023/03/13 00:21:26;;;;;;;3.40;1.20;;;;;;;18.66;44.42;100161.91;4838014;29;96878;-74
2023/03/13 00:23:52;;;;;;;3.30;1.33;;;;;;;18.65;44.72;100157.50;4836041;29;97383;-74
2023/03/13 00:26:22;;;;;;;1.70;0.90;;;;;;;18.65;44.58;100143.91;4837067;29;96858;-74
2023/03/13 00:28:50;;;;;;;2.35;1.10;;;;;;;18.66;44.63;100157.31;4851919;29;96899;-74
2023/03/13 00:31:18;;;;;;;1.80;0.88;;;;;;;18.65;44.57;100136.59;4843157;29;100206;-74
2023/03/13 00:33:51;;;;;;;4.18;1.25;;;;;;;18.64;44.72;100142.19;4837614;29;96870;-73
2023/03/13 00:36:23;;;;;;;2.33;1.02;;;;;;;18.64;44.53;100128.59;4820899;29;97153;-73
2023/03/13 00:38:51;;;;;;;3.78;1.40;;;;;;;18.65;44.57;100119.41;4837528;29;96901;-73
2023/03/13 00:41:20;;;;;;;3.33;1.38;;;;;;;18.65;44.54;100122.13;4851649;28;98561;-74
2023/03/13 00:43:47;;;;;;;5.03;1.30;;;;;;;18.63;44.56;100119.59;4837652;29;96763;-73
2023/03/13 00:46:16;;;;;;;1.48;0.93;;;;;;;18.65;44.35;100117.53;4851953;29;96872;-73
2023/03/13 00:48:42;;;;;;;2.83;1.10;;;;;;;18.67;44.72;100109.19;4835752;29;97997;-74
2023/03/13 00:51:12;;;;;;;2.35;1.10;;;;;;;18.65;44.62;100106.66;4851376;28;96743;-73
2023/03/13 00:53:39;;;;;;;2.53;1.00;;;;;;;18.66;44.75;100102.91;4851979;29;96825;-73
2023/03/13 00:56:11;;;;;;;1.77;1.00;;;;;;;18.66;44.74;100096.63;4837147;29;96840;-75
2023/03/13 00:58:40;;;;;;;2.65;1.10;;;;;;;18.65;44.48;100084.06;4851010;29;98726;-75
2023/03/13 01:01:08;;;;;;;2.38;1.08;;;;;;;18.67;44.80;100079.28;4835174;29;98335;-74
2023/03/13 01:03:36;;;;;;;3.38;1.10;;;;;;;18.67;44.46;100066.53;4836343;29;97150;-74
2023/03/13 01:06:04;;;;;;;2.80;1.17;;;;;;;18.66;44.58;100064.84;4837765;29;97088;-74
2023/03/13 01:08:31;;;;;;;1.58;0.90;;;;;;;18.67;44.59;100063.81;4835452;29;97815;-73
2023/03/13 01:11:09;;;;;;;1.65;1.08;;;;;;;18.67;44.36;100063.81;4834685;29;96968;-74
2023/03/13 01:13:36;;;;;;;2.45;1.02;;;;;;;18.68;44.64;100054.63;4815626;29;96829;-74
2023/03/13 01:16:12;;;;;;;2.40;0.90;;;;;;;18.68;44.56;100045.63;4838818;29;96813;-73
2023/03/13 01:18:41;;;;;;;2.35;1.20;;;;;;;18.68;44.66;100034.75;4837421;29;96895;-76
2023/03/13 01:21:09;;;;;;;1.75;0.90;;;;;;;18.68;44.71;100027.44;4835863;29;97018;-74
2023/03/13 01:23:36;;;;;;;3.53;1.23;;;;;;;18.68;44.26;100022.00;4834874;29;97327;-74
2023/03/13 01:26:05;;;;;;;3.60;1.10;;;;;;;18.70;44.70;100014.50;4835132;29;96967;-74
2023/03/13 01:28:32;;;;;;;2.17;1.15;;;;;;;18.71;44.35;100012.63;4836732;29;97804;-75
2023/03/13 01:31:00;;;;;;;1.52;0.80;;;;;;;18.71;44.29;100001.75;4834599;29;97319;-74
2023/03/13 01:33:26;;;;;;;2.63;1.10;;;;;;;18.70;44.58;100000.03;4835186;29;96799;-74
2023/03/13 01:36:00;;;;;;;2.40;0.80;;;;;;;18.70;44.38;99995.44;4836393;29;96862;-73
2023/03/13 01:38:27;;;;;;;2.07;0.93;;;;;;;18.69;44.32;99984.75;4835894;29;97144;-75
2023/03/13 01:40:54;;;;;;;3.38;1.77;;;;;;;18.70;44.24;99970.97;4835221;29;98536;-73
2023/03/13 01:43:25;;;;;;;2.78;1.30;;;;;;;18.70;44.14;99967.41;4835417;29;97227;-73
2023/03/13 01:46:01;;;;;;;2.83;1.38;;;;;;;18.71;44.71;99971.81;4832230;29;97079;-74
2023/03/13 01:48:44;;;;;;;1.98;0.90;;;;;;;18.68;44.65;99964.88;4849026;29;97743;-74
2023/03/13 01:51:14;;;;;;;1.42;0.70;;;;;;;18.71;44.33;99963.66;4850127;29;99737;-75
2023/03/13 01:53:45;;;;;;;2.30;0.80;;;;;;;18.70;44.51;99951.94;4850419;29;97116;-73
2023/03/13 01:56:18;;;;;;;1.67;1.08;;;;;;;18.71;44.38;99947.34;4850963;29;96913;-74
2023/03/13 01:58:48;;;;;;;2.38;1.13;;;;;;;18.71;44.24;99936.47;4848118;28;99121;-74
2023/03/13 02:01:15;;;;;;;2.38;0.88;;;;;;;18.71;44.42;99926.44;4834140;29;97531;-73
2023/03/13 02:03:42;;;;;;;3.08;0.98;;;;;;;18.72;44.29;99919.13;4834758;29;96758;-73
2023/03/13 02:06:10;;;;;;;1.75;0.80;;;;;;;18.73;44.41;99921.66;4851338;29;97233;-74
2023/03/13 02:08:43;;;;;;;2.47;1.10;;;;;;;18.72;44.50;99922.69;4836205;29;96637;-73
2023/03/13 02:11:19;;;;;;;1.67;1.02;;;;;;;18.72;44.35;99909.06;4833941;29;97159;-73
2023/03/13 02:13:49;;;;;;;1.85;1.00;;;;;;;18.75;44.21;99907.88;4833229;29;95863;-75
2023/03/13 02:16:16;;;;;;;2.33;1.00;;;;;;;18.74;44.48;99895.28;4835130;29;96739;-73
2023/03/13 02:18:47;;;;;;;2.55;1.08;;;;;;;18.74;44.11;99884.41;4837405;29;96820;-73
2023/03/13 02:21:24;;;;;;;2.45;1.10;;;;;;;18.71;44.49;99882.06;4821242;29;99651;-74
2023/03/13 02:24:05;;;;;;;1.80;1.23;;;;;;;18.76;44.17;99870.63;4837922;29;96841;-73
2023/03/13 02:26:32;;;;;;;2.95;1.05;;;;;;;18.74;44.05;99868.09;4837442;29;97012;-74
2023/03/13 02:28:59;;;;;;;2.42;1.10;;;;;;;18.72;44.00;99862.84;4834626;29;99369;-74
2023/03/13 02:31:26;;;;;;;3.38;0.90;;;;;;;18.74;44.55;99862.66;4832809;29;96757;-73
2023/03/13 02:33:54;;;;;;;2.47;1.00;;;;;;;18.73;44.15;99847.38;4836273;29;97262;-73
2023/03/13 02:36:22;;;;;;;1.98;1.10;;;;;;;18.74;44.28;99840.91;4834878;29;96805;-73
2023/03/13 02:39:00;;;;;;;1.77;0.95;;;;;;;18.75;44.43;99825.41;4835286;29;97430;-74
2023/03/13 02:41:28;;;;;;;2.55;1.00;;;;;;;18.76;44.08;99810.78;4834082;29;98997;-75
2023/03/13 02:43:57;;;;;;;2.67;1.23;;;;;;;18.73;44.22;99801.13;4834802;29;96791;-73
2023/03/13 02:46:23;;;;;;;2.35;0.90;;;;;;;18.73;44.23;99812.00;4834143;29;96884;-73
2023/03/13 02:48:55;;;;;;;2.25;0.90;;;;;;;18.73;44.57;99810.13;4833966;29;99885;-73
2023/03/13 02:51:39;;;;;;;1.92;0.77;;;;;;;18.73;44.17;99820.16;4833872;29;100593;-73
2023/03/13 02:54:34;;;;;;;2.08;0.88;;;;;;;18.74;44.43;99810.97;4848140;28;96932;-73
2023/03/13 02:57:03;;;;;;;2.33;0.95;;;;;;;18.72;44.60;99805.72;4834763;29;97172;-73
2023/03/13 02:59:30;;;;;;;1.92;0.90;;;;;;;18.75;44.58;99815.38;4834337;29;99101;-74
2023/03/13 03:01:57;;;;;;;2.47;0.98;;;;;;;18.74;44.44;99819.13;4834002;29;99466;-74
2023/03/13 03:04:25;;;;;;;1.67;0.70;;;;;;;18.76;44.14;99808.06;4834084;29;96676;-73
2023/03/13 03:06:54;;;;;;;1.98;0.90;;;;;;;18.75;44.44;99814.53;4834740;29;96877;-74
2023/03/13 03:09:22;;;;;;;1.90;0.82;;;;;;;18.76;44.47;99816.22;4849327;29;98948;-73
2023/03/13 03:11:52;;;;;;;1.85;0.82;;;;;;;18.75;44.58;99815.38;4834204;29;98555;-73
2023/03/13 03:14:19;;;;;;;1.83;0.93;;;;;;;18.76;43.93;99816.22;4834425;29;97306;-73
2023/03/13 03:16:47;;;;;;;1.30;0.85;;;;;;;18.76;44.36;99808.06;4832080;29;96964;-73
2023/03/13 03:19:13;;;;;;;1.42;0.70;;;;;;;18.76;44.59;99821.66;4835214;29;97439;-73
2023/03/13 03:21:40;;;;;;;1.05;0.70;;;;;;;18.76;44.39;99813.50;4834133;29;98640;-76
2023/03/13 03:24:07;;;;;;;1.50;0.80;;;;;;;18.77;44.32;99805.16;4833789;29;96764;-73
2023/03/13 03:26:35;;;;;;;1.23;0.80;;;;;;;18.79;44.30;99811.25;4835849;29;96762;-74
2023/03/13 03:29:09;;;;;;;2.00;1.02;;;;;;;18.77;44.42;99805.16;4849090;29;99007;-74
2023/03/13 03:31:37;;;;;;;2.08;1.13;;;;;;;18.79;44.12;99818.56;4833080;29;99541;-74
2023/03/13 03:34:03;;;;;;;2.35;0.90;;;;;;;18.78;44.64;99812.28;4833871;29;98395;-74
2023/03/13 03:36:30;;;;;;;1.73;0.75;;;;;;;18.79;44.26;99799.53;4835092;29;96820;-74
2023/03/13 03:38:59;;;;;;;1.75;0.90;;;;;;;18.79;44.11;99794.94;4833705;29;99206;-74
2023/03/13 03:41:26;;;;;;;1.45;0.80;;;;;;;18.78;44.54;99798.69;4846574;28;98771;-73
2023/03/13 03:43:53;;;;;;;2.75;0.80;;;;;;;18.79;44.47;99789.50;4818717;29;97234;-74
2023/03/13 03:46:24;;;;;;;2.30;1.02;;;;;;;18.80;44.46;99793.06;4834172;29;97346;-73
2023/03/13 03:48:51;;;;;;;2.15;0.88;;;;;;;18.82;44.25;99788.28;4830153;29;100021;-74
2023/03/13 03:51:19;;;;;;;2.00;0.90;;;;;;;18.81;44.49;99792.03;4833050;29;99232;-74
2023/03/13 03:53:46;;;;;;;1.25;0.65;;;;;;;18.83;44.43;99788.09;4834404;29;96706;-74
2023/03/13 03:56:13;;;;;;;1.77;0.80;;;;;;;18.82;44.42;99786.41;4834803;29;96701;-74
2023/03/13 03:58:45;;;;;;;2.45;1.20;;;;;;;18.80;44.08;99793.91;4825662;29;99113;-73
2023/03/13 04:01:19;;;;;;;;;;;;;;;18.83;44.20;99787.25;4836932;29;99168;-73
2023/03/13 04:03:47;;;;;;;1.77;0.80;;;;;;;18.83;44.50;99787.25;4834566;29;96735;-74
2023/03/13 04:06:14;;;;;;;1.50;0.70;;;;;;;18.83;44.44;99785.38;4836912;29;96814;-74
2023/03/13 04:08:42;;;;;;;1.63;0.60;;;;;;;18.83;44.07;99787.25;4851976;29;98498;-74
2023/03/13 04:11:11;;;;;;;1.15;0.63;;;;;;;18.81;44.16;99773.84;4836381;29;97135;-73
2023/03/13 04:13:41;;;;;;;1.10;0.70;;;;;;;18.83;44.18;99777.22;4852642;29;96694;-76
2023/03/13 04:16:08;;;;;;;0.95;0.65;;;;;;;18.81;44.08;99773.84;4836416;29;96980;-73
2023/03/13 04:18:36;;;;;;;1.65;0.70;;;;;;;18.83;44.35;99766.31;4835949;29;98937;-74
2023/03/13 04:21:04;;;;;;;1.30;0.60;;;;;;;18.82;44.32;99764.63;4835665;29;99636;-73
2023/03/13 04:23:40;;;;;;;0.98;0.50;;;;;;;18.82;44.27;99759.19;4836995;29;96938;-74
2023/03/13 04:26:07;;;;;;;1.77;0.90;;;;;;;18.83;44.25;99763.59;4850528;28;96884;-73
2023/03/13 04:28:33;;;;;;;0.98;0.43;;;;;;;18.82;44.49;99764.63;4837494;29;97051;-74
2023/03/13 04:31:02;;;;;;;1.80;0.73;;;;;;;18.83;44.17;99760.88;4837158;29;97313;-74
2023/03/13 04:33:47;;;;;;;0.73;0.47;;;;;;;18.82;44.61;99766.50;4834205;29;97696;-73
2023/03/13 04:36:26;;;;;;;1.30;0.73;;;;;;;18.83;44.24;99757.31;4823203;29;99483;-73
2023/03/13 04:39:15;;;;;;;2.67;0.75;;;;;;;18.81;44.21;99749.34;4837424;29;97424;-73
2023/03/13 04:41:57;;;;;;;1.77;0.63;;;;;;;18.81;44.39;99738.47;4836125;29;98747;-73
2023/03/13 04:44:44;;;;;;;1.13;0.60;;;;;;;18.83;44.38;99735.56;4835429;29;97229;-73
2023/03/13 04:47:21;;;;;;;1.35;0.80;;;;;;;18.82;44.58;99739.31;4851678;28;98972;-73
2023/03/13 04:50:08;;;;;;;1.20;0.70;;;;;;;18.83;44.18;99730.13;4834172;29;97373;-73
2023/03/13 04:52:43;;;;;;;1.05;0.50;;;;;;;18.84;44.48;99718.22;4851771;28;100472;-74
2023/03/13 04:55:19;;;;;;;1.35;0.68;;;;;;;18.83;44.28;99717.38;4836334;29;96823;-74
2023/03/13 04:57:59;;;;;;;1.52;0.70;;;;;;;18.83;44.49;99703.75;4822249;29;96837;-73
2023/03/13 05:00:58;;;;;;;1.38;0.73;;;;;;;18.85;44.46;99712.56;4835244;29;98580;-76
2023/03/13 05:03:33;;;;;;;0.90;0.57;;;;;;;18.85;44.35;99700.84;4835853;29;97154;-74
2023/03/13 05:06:28;;;;;;;0.70;0.55;;;;;;;18.85;44.29;99709.84;4828934;29;97397;-73
2023/03/13 05:09:24;;;;;;;1.50;0.60;;;;;;;18.87;44.49;99699.63;4835531;29;96921;-73
2023/03/13 05:12:16;;;;;;;1.27;0.63;;;;;;;18.87;44.50;99704.22;4837018;29;97974;-74
2023/03/13 05:14:46;;;;;;;1.33;0.60;;;;;;;18.87;44.22;99696.91;4835492;29;96745;-74
2023/03/13 05:17:31;;;;;;;1.25;0.50;;;;;;;18.87;44.61;99694.19;4836414;29;96954;-73
2023/03/13 05:20:19;;;;;;;0.90;0.43;;;;;;;18.87;44.17;99690.63;4823300;29;96778;-74
2023/03/13 05:23:00;;;;;;;1.50;0.50;;;;;;;18.86;44.22;99669.88;4850502;29;98721;-73
2023/03/13 05:25:54;;;;;;;0.55;0.35;;;;;;;18.86;44.62;99681.63;4834148;29;96967;-73
2023/03/13 05:28:48;;;;;;;0.80;0.50;;;;;;;18.85;44.58;99676.38;4835577;29;97145;-73
2023/03/13 05:31:26;;;;;;;1.25;0.52;;;;;;;18.87;44.35;99687.91;4834950;29;96954;-73
2023/03/13 05:34:16;;;;;;;0.95;0.75;;;;;;;18.87;44.49;99683.31;4835959;29;97885;-73
2023/03/13 05:37:12;;;;;;;0.90;0.50;;;;;;;18.86;44.55;99684.34;4837859;29;98327;-73
2023/03/13 05:39:57;;;;;;;0.90;0.50;;;;;;;18.89;44.33;99666.78;4833077;29;98398;-73
2023/03/13 05:42:38;;;;;;;1.48;0.50;;;;;;;18.90;44.18;99674.75;4851629;29;97306;-73
2023/03/13 05:45:18;;;;;;;2.83;0.63;;;;;;;18.89;44.44;99681.22;4849797;29;97730;-74
2023/03/13 05:48:07;;;;;;;1.52;0.50;;;;;;;18.88;44.49;99684.16;4835077;29;99453;-73
2023/03/13 05:51:01;;;;;;;1.27;0.40;;;;;;;18.86;44.41;99678.91;4823327;29;96848;-73
2023/03/13 05:53:43;;;;;;;1.45;0.70;;;;;;;18.86;44.41;99692.50;4834959;29;97347;-75
2023/03/13 05:56:32;;;;;;;2.25;0.55;;;;;;;18.89;44.32;99686.69;4843645;29;97909;-74
2023/03/13 05:59:22;;;;;;;0.90;0.40;;;;;;;18.89;44.46;99685.84;4836129;29;96760;-74
2023/03/13 06:02:09;;;;;;;1.60;0.40;;;;;;;18.89;44.51;99694.00;4822295;29;96723;-74
2023/03/13 06:04:40;;;;;;;1.02;0.40;;;;;;;18.90;44.32;99676.63;4834823;29;97357;-74
2023/03/13 06:07:07;;;;;;;1.10;0.52;;;;;;;18.91;44.66;99679.16;4835381;29;96729;-73
2023/03/13 06:09:34;;;;;;;1.35;0.50;;;;;;;18.92;44.63;99680.00;4833999;29;97529;-73
2023/03/13 06:12:00;;;;;;;0.60;0.40;;;;;;;18.92;44.67;99677.28;4834318;29;96830;-74
2023/03/13 06:14:28;;;;;;;0.88;0.50;;;;;;;18.92;44.14;99675.41;4834655;29;96948;-73
2023/03/13 06:17:20;;;;;;;0.70;0.47;;;;;;;18.93;44.61;99682.53;4821758;29;97502;-75
2023/03/13 06:19:47;;;;;;;1.17;0.50;;;;;;;18.92;44.17;99682.72;4834048;29;97926;-73
2023/03/13 06:22:15;;;;;;;1.05;0.50;;;;;;;18.93;44.16;99676.25;4835069;29;96793;-73
2023/03/13 06:24:43;;;;;;;1.10;0.60;;;;;;;18.95;44.38;99679.63;4850971;29;96919;-74
2023/03/13 06:27:10;;;;;;;1.48;0.70;;;;;;;18.94;44.26;99681.50;4850212;29;97451;-74
2023/03/13 06:29:36;;;;;;;0.70;0.40;;;;;;;18.95;44.51;99683.19;4834526;29;97438;-74
2023/03/13 06:32:03;;;;;;;0.60;0.40;;;;;;;18.96;44.15;99674.00;4835528;29;96860;-76
2023/03/13 06:34:30;;;;;;;0.63;0.40;;;;;;;18.96;44.54;99670.44;4836222;29;97068;-74
2023/03/13 06:36:57;;;;;;;0.80;0.43;;;;;;;18.95;44.22;99669.59;4836041;29;97070;-74
2023/03/13 06:39:24;;;;;;;0.70;0.47;;;;;;;18.95;44.15;99675.03;4835499;29;96705;-74
2023/03/13 06:41:50;;;;;;;2.72;0.60;;;;;;;18.97;44.34;99672.13;4835668;29;96985;-74
2023/03/13 06:44:17;;;;;;;1.15;0.60;;;;;;;18.95;44.36;99666.88;4835152;29;96774;-74
2023/03/13 06:46:43;;;;;;;1.20;0.50;;;;;;;18.95;44.09;99677.75;4834997;29;96836;-75
2023/03/13 06:49:10;;;;;;;0.73;0.50;;;;;;;18.96;44.32;99665.00;4840390;29;97292;-73
2023/03/13 06:51:36;;;;;;;1.15;0.60;;;;;;;18.96;44.56;99670.44;4836940;29;96780;-73
2023/03/13 06:54:03;;;;;;;0.73;0.38;;;;;;;18.96;44.45;99665.00;4838329;29;96820;-74
2023/03/13 06:56:29;;;;;;;0.70;0.40;;;;;;;18.96;44.54;99674.00;4835036;29;97801;-73
2023/03/13 06:58:56;;;;;;;0.90;0.50;;;;;;;18.97;44.31;99672.13;4852618;28;98717;-74
2023/03/13 07:01:25;;;;;;;0.93;0.40;;;;;;;18.98;44.60;99671.09;4834208;29;97092;-76
2023/03/13 07:03:52;;;;;;;0.95;0.47;;;;;;;18.98;44.23;99671.09;4839764;29;97055;-74
2023/03/13 07:06:19;;;;;;;1.27;0.55;;;;;;;18.98;44.57;99676.53;4848591;29;97840;-73
2023/03/13 07:08:46;;;;;;;0.90;0.40;;;;;;;18.97;44.30;99670.25;4837681;29;97189;-75
2023/03/13 07:11:16;;;;;;;0.80;0.40;;;;;;;18.94;44.30;99659.75;4838147;29;96800;-74
2023/03/13 07:13:43;;;;;;;0.93;0.40;;;;;;;18.98;44.56;99669.19;4845303;28;96633;-73
2023/03/13 07:16:12;;;;;;;1.02;0.63;;;;;;;19.00;44.39;99669.84;4841563;29;97148;-74
2023/03/13 07:18:43;;;;;;;0.65;0.40;;;;;;;19.07;44.46;99663.63;4845414;28;97691;-77
2023/03/13 07:21:11;;;;;;;1.35;0.50;;;;;;;19.08;44.14;99658.00;4842559;29;96850;-74
2023/03/13 07:23:38;;;;;;;1.50;0.50;;;;;;;19.10;44.08;99655.09;4841669;28;97200;-73
2023/03/13 07:26:12;;;;;;;1.00;0.43;;;;;;;19.10;44.07;99655.09;4837420;29;96842;-73
2023/03/13 07:28:38;;;;;;;1.00;0.40;;;;;;;19.12;44.02;99663.91;4844977;28;96914;-73
2023/03/13 07:31:11;;;;;;;0.65;0.40;;;;;;;19.16;44.32;99667.94;4854495;28;96883;-73
2023/03/13 07:33:38;;;;;;;1.30;0.50;;;;;;;19.19;44.23;99667.53;4839776;29;96747;-74
2023/03/13 07:36:05;;;;;;;0.70;0.40;;;;;;;19.22;43.88;99659.00;4855906;29;98412;-73
2023/03/13 07:38:32;;;;;;;0.85;0.50;;;;;;;19.32;44.06;99664.97;4843558;29;97647;-75
2023/03/13 07:40:59;;;;;;;1.15;0.50;;;;;;;19.24;44.01;99660.47;4840236;29;96709;-73
2023/03/13 07:43:26;;;;;;;1.10;0.50;;;;;;;19.14;43.80;99665.41;4839581;29;96863;-73
2023/03/13 07:45:57;;;;;;;0.73;0.40;;;;;;;19.09;43.83;99658.84;4841380;29;98186;-73
2023/03/13 07:48:27;;;;;;;0.50;0.28;;;;;;;19.05;44.17;99663.84;4837809;29;96794;-73
2023/03/13 07:50:54;;;;;;;1.08;0.50;;;;;;;19.04;44.29;99667.59;4847860;29;97009;-73
2023/03/13 07:53:21;;;;;;;0.88;0.50;;;;;;;19.01;44.23;99659.81;4837629;29;96764;-73
2023/03/13 07:56:02;;;;;;;1.27;0.60;;;;;;;18.97;44.27;99659.34;4846775;29;96837;-73
2023/03/13 07:58:30;;;;;;;0.60;0.40;;;;;;;18.93;44.53;99663.50;4838350;29;96698;-74
2023/03/13 08:00:58;;;;;;;1.15;0.40;;;;;;;18.94;44.17;99665.19;4841460;29;97224;-73
2023/03/13 08:03:27;;;;;;;2.17;0.68;;;;;;;18.95;44.13;99653.25;4854255;28;96821;-72
2023/03/13 08:06:06;;;;;;;0.93;0.47;;;;;;;18.98;44.29;99658.31;4837243;29;96823;-74
2023/03/13 08:08:34;;;;;;;1.25;0.50;;;;;;;18.97;44.24;99664.78;4852549;28;97104;-73
2023/03/13 08:11:03;;;;;;;1.10;0.60;;;;;;;18.98;44.39;99661.03;4837536;29;96780;-73
2023/03/13 08:13:33;;;;;;;1.05;0.50;;;;;;;18.97;44.17;99675.69;4837044;29;96773;-73
2023/03/13 08:16:04;;;;;;;0.80;0.40;;;;;;;19.03;43.93;99672.19;4846499;29;99389;-73
2023/03/13 08:18:33;;;;;;;0.55;0.40;;;;;;;19.04;44.18;99654.00;4853986;29;97343;-74
2023/03/13 08:21:02;;;;;;;0.80;0.50;;;;;;;19.10;43.80;99671.41;4844814;28;96806;-73
2023/03/13 08:23:29;;;;;;;0.75;0.30;;;;;;;19.13;43.96;99657.44;4843650;29;96656;-75
2023/03/13 08:26:07;;;;;;;0.77;0.50;;;;;;;19.11;44.29;99656.78;4859166;28;97184;-73
2023/03/13 08:28:34;;;;;;;0.60;0.32;;;;;;;19.14;43.92;99642.78;4859410;28;97229;-73
2023/03/13 08:31:08;;;;;;;0.50;0.40;;;;;;;19.14;44.09;99645.50;4820454;29;96835;-73
2023/03/13 08:33:35;;;;;;;1.00;0.30;;;;;;;19.19;43.79;99646.59;4839924;29;96683;-73
2023/03/13 08:36:16;;;;;;;0.60;0.40;;;;;;;19.18;43.71;99636.75;4841767;29;99573;-73
2023/03/13 08:38:44;;;;;;;1.17;0.80;;;;;;;19.18;44.06;99635.91;4837589;29;99553;-74
2023/03/13 08:41:17;;;;;;;0.90;0.40;;;;;;;19.21;43.78;99633.66;4845988;29;96708;-73
2023/03/13 08:43:44;;;;;;;1.38;0.50;;;;;;;19.19;44.04;99637.59;4852475;29;96726;-73
2023/03/13 08:46:12;;;;;;;2.13;0.60;;;;;;;19.23;43.83;99641.63;4837376;29;96707;-73
2023/03/13 08:48:38;;;;;;;0.73;0.50;;;;;;;19.21;43.77;99628.22;4841127;29;96749;-73
2023/03/13 08:51:11;;;;;;;0.50;0.30;;;;;;;19.19;43.77;99640.31;4833295;29;97322;-73
2023/03/13 08:53:39;;;;;;;0.77;0.40;;;;;;;19.17;43.63;99636.94;4846561;29;97106;-74
2023/03/13 08:56:06;;;;;;;1.15;0.50;;;;;;;19.17;44.04;99636.94;4844980;29;96795;-74
2023/03/13 08:58:33;;;;;;;1.80;0.40;;;;;;;19.11;44.14;99622.25;4839662;29;96678;-73
2023/03/13 09:01:02;;;;;;;0.80;0.40;;;;;;;19.07;44.23;99629.09;4853236;29;96627;-73
2023/03/13 09:03:29;;;;;;;1.08;0.40;;;;;;;19.06;44.11;99635.59;4850464;29;97037;-73
2023/03/13 09:05:57;;;;;;;0.50;0.30;;;;;;;19.02;44.27;99626.97;4842503;29;98252;-73
2023/03/13 09:08:24;;;;;;;0.52;0.40;;;;;;;18.99;44.17;99616.47;4850767;29;98547;-73
2023/03/13 09:10:56;;;;;;;0.80;0.40;;;;;;;19.03;43.87;99620.50;4843711;29;96641;-73
2023/03/13 09:13:24;;;;;;;0.55;0.32;;;;;;;19.00;44.38;99623.59;4868687;28;96803;-73
2023/03/13 09:16:02;;;;;;;0.43;0.32;;;;;;;18.99;44.42;99621.06;4852930;29;98437;-73
2023/03/13 09:18:29;;;;;;;0.90;0.30;;;;;;;19.00;44.42;99610.00;4836479;29;96437;-73
2023/03/13 09:20:56;;;;;;;0.60;0.40;;;;;;;19.01;43.97;99603.50;4840952;29;97285;-73
2023/03/13 09:23:23;;;;;;;0.55;0.40;;;;;;;18.99;44.10;99602.03;4836900;29;97053;-73
2023/03/13 09:25:54;;;;;;;1.25;0.32;;;;;;;19.00;43.96;99596.38;4840827;29;96749;-73
2023/03/13 09:28:22;;;;;;;0.88;0.50;;;;;;;18.95;44.21;99601.56;4838880;29;96655;-73
2023/03/13 09:30:49;;;;;;;0.82;0.38;;;;;;;18.96;44.53;99592.38;4836682;29;96900;-73
2023/03/13 09:33:16;;;;;;;0.50;0.40;;;;;;;18.98;44.21;99595.75;4845930;29;96760;-73
2023/03/13 09:35:49;;;;;;;2.03;0.50;;;;;;;19.04;44.20;99592.25;4842666;29;98171;-73
2023/03/13 09:38:17;;;;;;;0.60;0.50;;;;;;;19.09;44.05;99585.38;4845826;29;97002;-73
2023/03/13 09:40:46;;;;;;;1.92;0.68;;;;;;;19.12;44.00;99585.00;4836759;29;96920;-72
2023/03/13 09:43:47;;;;;;;1.17;0.30;;;;;;;19.09;44.40;99572.59;4845255;29;97043;-73
2023/03/13 09:46:42;;;;;;;0.63;0.50;;;;;;;19.09;44.04;99563.59;4841406;29;97451;-73
2023/03/13 09:49:15;;;;;;;;;;;;;;;19.09;44.02;99553.56;4836134;29;96850;-73
2023/03/13 09:51:50;;;;;;;0.40;0.30;;;;;;;19.11;44.10;99556.94;4841994;29;96843;-73
2023/03/13 09:54:27;;;;;;;0.88;0.47;;;;;;;19.10;44.34;99547.09;4850636;28;97130;-73
2023/03/13 09:57:34;;;;;;;2.17;0.40;;;;;;;19.10;44.15;99541.63;4839240;29;96931;-72
2023/03/13 10:00:13;;;;;;;0.75;0.40;;;;;;;19.12;44.32;99530.56;4836344;29;98564;-74
2023/03/13 10:02:45;;;;;;;0.60;0.40;;;;;;;19.12;44.16;99544.16;4843903;29;97072;-73
2023/03/13 10:05:24;;;;;;;0.45;0.30;;;;;;;19.10;43.98;99528.03;4837341;29;96863;-73
2023/03/13 10:07:57;;;;;;;1.05;0.45;;;;;;;19.09;44.32;99530.94;4837295;29;97608;-72
2023/03/13 10:10:44;;;;;;;0.70;0.40;;;;;;;19.10;43.95;99532.63;4839299;29;99042;-73
2023/03/13 10:13:36;;;;;;;0.90;0.40;;;;;;;19.09;44.28;99544.56;4849200;28;96742;-73
2023/03/13 10:16:14;;;;;;;0.43;0.38;;;;;;;19.05;43.98;99536.78;4849958;28;97015;-73
2023/03/13 10:18:48;;;;;;;0.50;0.30;;;;;;;19.05;44.10;99544.94;4834637;29;97670;-73
2023/03/13 10:21:18;;;;;;;0.93;0.50;;;;;;;19.05;44.46;99533.22;4837290;29;96627;-74
2023/03/13 10:23:59;;;;;;;0.30;0.25;;;;;;;19.05;44.21;99525.06;4835806;29;96800;-73
2023/03/13 10:26:29;;;;;;;0.73;0.40;;;;;;;19.07;44.03;99516.69;4839654;29;98889;-74
2023/03/13 10:29:00;;;;;;;0.63;0.43;;;;;;;19.07;44.33;99524.88;4841541;28;96487;-76
2023/03/13 10:31:31;;;;;;;1.35;0.38;;;;;;;19.08;44.47;99511.06;4852612;28;97671;-74
2023/03/13 10:34:06;;;;;;;1.33;0.55;;;;;;;19.05;44.38;99528.63;4855925;28;97141;-74
2023/03/13 10:36:48;;;;;;;0.57;0.30;;;;;;;19.04;44.08;99523.38;4853392;28;96668;-73
2023/03/13 10:39:21;;;;;;;0.57;0.30;;;;;;;19.08;44.12;99515.66;4825767;29;98252;-74
2023/03/13 10:41:49;;;;;;;1.25;0.50;;;;;;;19.09;44.37;99525.50;4838492;29;97024;-73
2023/03/13 10:44:19;;;;;;;0.80;0.50;;;;;;;19.13;44.27;99518.63;4844720;29;96771;-74
2023/03/13 10:46:48;;;;;;;0.45;0.30;;;;;;;19.13;44.35;99508.59;4836285;29;96961;-74
2023/03/13 10:49:23;;;;;;;0.80;0.40;;;;;;;19.14;44.37;99514.88;4834816;29;99106;-74
2023/03/13 10:51:52;;;;;;;0.82;0.45;;;;;;;19.14;44.07;99501.25;4849014;29;97452;-73
2023/03/13 10:54:25;;;;;;;0.57;0.40;;;;;;;19.14;44.18;99499.38;4852197;29;96912;-74
2023/03/13 10:57:25;;;;;;;0.40;0.30;;;;;;;19.13;44.32;99496.88;4835435;29;96885;-74
2023/03/13 10:59:53;;;;;;;0.40;0.30;;;;;;;19.05;44.55;99489.69;4848347;29;96799;-73
2023/03/13 11:02:34;;;;;;;0.40;0.30;;;;;;;19.03;44.17;99495.31;4852925;28;97409;-73
2023/03/13 11:05:21;;;;;;;0.70;0.40;;;;;;;19.07;44.50;99482.16;4840495;29;96791;-73
2023/03/13 11:07:49;;;;;;;0.30;0.20;;;;;;;19.08;44.30;99474.84;4848665;29;96912;-74
2023/03/13 11:10:18;;;;;;;0.82;0.32;;;;;;;19.07;44.56;99475.88;4843137;29;97576;-74
2023/03/13 11:12:52;;;;;;;0.47;0.30;;;;;;;19.08;44.19;99483.00;4842927;29;96665;-72
2023/03/13 11:15:25;;;;;;;0.70;0.47;;;;;;;19.13;44.22;99478.66;4836335;29;96653;-73
2023/03/13 11:18:08;;;;;;;0.30;0.20;;;;;;;19.19;44.05;99460.69;4835420;29;97018;-72
2023/03/13 11:20:38;;;;;;;0.22;0.20;;;;;;;19.22;43.98;99471.19;4835496;29;97588;-74
2023/03/13 11:23:11;;;;;;;0.82;0.40;;;;;;;19.22;44.43;99471.19;4836026;29;96762;-73
2023/03/13 11:25:56;;;;;;;0.52;0.30;;;;;;;19.23;44.11;99459.25;4841447;29;97595;-73
2023/03/13 11:28:42;;;;;;;0.82;0.40;;;;;;;19.20;44.12;99481.44;4841401;29;96934;-73
2023/03/13 11:31:13;;;;;;;0.28;0.20;;;;;;;19.13;44.28;99462.31;4841971;29;96649;-74
2023/03/13 11:33:52;;;;;;;0.60;0.40;;;;;;;19.16;44.31;99456.50;4843312;28;97817;-73
2023/03/13 11:36:24;;;;;;;0.32;0.25;;;;;;;19.20;43.95;99457.78;4842221;29;97258;-73
2023/03/13 11:39:22;;;;;;;0.70;0.35;;;;;;;19.20;44.03;99465.94;4836173;29;96764;-74
2023/03/13 11:42:02;;;;;;;0.50;0.30;;;;;;;19.15;44.23;99460.25;4829888;29;97311;-73
2023/03/13 11:45:00;;;;;;;0.60;0.40;;;;;;;19.16;44.02;99466.53;4834248;29;99504;-74
2023/03/13 11:47:57;;;;;;;0.70;0.30;;;;;;;19.10;44.58;99454.56;4822467;29;96762;-73
2023/03/13 11:50:53;;;;;;;0.50;0.30;;;;;;;19.15;44.34;99453.97;4843288;29;96714;-73
2023/03/13 11:53:58;;;;;;;0.68;0.47;;;;;;;19.24;44.28;99463.66;4833908;29;97965;-73
2023/03/13 11:56:40;;;;;;;0.38;0.20;;;;;;;19.31;44.38;99451.78;4769542;29;97419;-73
2023/03/13 11:59:36;;;;;;;0.52;0.40;;;;;;;19.32;43.91;99445.31;4762945;29;96853;-76
2023/03/13 12:02:03;;;;;;;;;;;;;;;19.33;44.07;99446.16;4825355;28;96725;-73